sensor_id;sensor_type;location;lat;lon;timestamp;P1;durP1;ratioP1;P2;durP2;ratioP2
68800;SDS011;55784;50.734;7.086;2023-02-01T00:01:47;15.13;;;5.30;;
68800;SDS011;55784;50.734;7.086;2023-02-01T00:04:12;16.00;;;5.10;;
68800;SDS011;55784;50.734;7.086;2023-02-01T00:06:38;14.15;;;4.68;;
68800;SDS011;55784;50.734;7.086;2023-02-01T00:09:03;16.60;;;5.07;;
68800;SDS011;55784;50.734;7.086;2023-02-01T00:11:29;14.87;;;5.00;;
68800;SDS011;55784;50.734;7.086;2023-02-01T00:13:54;18.45;;;5.00;;
68800;SDS011;55784;50.734;7.086;2023-02-01T00:16:23;15.23;;;5.00;;
68800;SDS011;55784;50.734;7.086;2023-02-01T00:18:51;14.77;;;4.90;;
68800;SDS011;55784;50.734;7.086;2023-02-01T00:21:21;15.00;;;4.80;;
68800;SDS011;55784;50.734;7.086;2023-02-01T00:23:47;17.27;;;5.07;;
68800;SDS011;55784;50.734;7.086;2023-02-01T00:26:17;16.60;;;5.20;;
68800;SDS011;55784;50.734;7.086;2023-02-01T00:28:44;15.88;;;5.22;;
68800;SDS011;55784;50.734;7.086;2023-02-01T00:31:09;15.07;;;5.18;;
68800;SDS011;55784;50.734;7.086;2023-02-01T00:33:35;16.43;;;5.13;;
68800;SDS011;55784;50.734;7.086;2023-02-01T00:36:01;14.03;;;5.10;;
68800;SDS011;55784;50.734;7.086;2023-02-01T00:38:29;14.15;;;4.65;;
68800;SDS011;55784;50.734;7.086;2023-02-01T00:40:56;14.75;;;4.65;;
68800;SDS011;55784;50.734;7.086;2023-02-01T00:43:27;27.17;;;9.50;;
68800;SDS011;55784;50.734;7.086;2023-02-01T00:45:52;16.83;;;5.10;;
68800;SDS011;55784;50.734;7.086;2023-02-01T00:48:17;15.77;;;4.60;;
68800;SDS011;55784;50.734;7.086;2023-02-01T00:50:43;15.73;;;3.95;;
68800;SDS011;55784;50.734;7.086;2023-02-01T00:53:09;12.40;;;3.70;;
68800;SDS011;55784;50.734;7.086;2023-02-01T00:55:35;10.43;;;3.30;;
68800;SDS011;55784;50.734;7.086;2023-02-01T00:58:00;11.75;;;3.10;;
68800;SDS011;55784;50.734;7.086;2023-02-01T01:00:25;16.80;;;3.50;;
68800;SDS011;55784;50.734;7.086;2023-02-01T01:02:51;13.90;;;2.83;;
68800;SDS011;55784;50.734;7.086;2023-02-01T01:05:16;9.70;;;2.70;;
68800;SDS011;55784;50.734;7.086;2023-02-01T01:07:41;10.70;;;2.87;;
68800;SDS011;55784;50.734;7.086;2023-02-01T01:10:07;14.00;;;3.00;;
68800;SDS011;55784;50.734;7.086;2023-02-01T01:12:32;10.63;;;2.33;;
68800;SDS011;55784;50.734;7.086;2023-02-01T01:14:58;12.87;;;3.07;;
68800;SDS011;55784;50.734;7.086;2023-02-01T01:17:23;12.13;;;2.77;;
68800;SDS011;55784;50.734;7.086;2023-02-01T01:19:48;10.47;;;2.73;;
68800;SDS011;55784;50.734;7.086;2023-02-01T01:22:14;15.40;;;2.60;;
68800;SDS011;55784;50.734;7.086;2023-02-01T01:24:39;10.20;;;2.30;;
68800;SDS011;55784;50.734;7.086;2023-02-01T01:27:04;10.47;;;2.40;;
68800;SDS011;55784;50.734;7.086;2023-02-01T01:29:29;10.83;;;2.40;;
68800;SDS011;55784;50.734;7.086;2023-02-01T01:31:55;13.80;;;2.67;;
68800;SDS011;55784;50.734;7.086;2023-02-01T01:34:20;11.57;;;2.73;;
68800;SDS011;55784;50.734;7.086;2023-02-01T01:36:45;11.80;;;2.60;;
68800;SDS011;55784;50.734;7.086;2023-02-01T01:39:10;12.60;;;2.70;;
68800;SDS011;55784;50.734;7.086;2023-02-01T01:41:36;9.77;;;2.53;;
68800;SDS011;55784;50.734;7.086;2023-02-01T01:44:03;11.43;;;2.80;;
68800;SDS011;55784;50.734;7.086;2023-02-01T01:46:33;12.60;;;3.03;;
68800;SDS011;55784;50.734;7.086;2023-02-01T01:51:41;11.48;;;2.75;;
68800;SDS011;55784;50.734;7.086;2023-02-01T01:54:12;12.38;;;2.85;;
68800;SDS011;55784;50.734;7.086;2023-02-01T01:56:43;12.47;;;2.97;;
68800;SDS011;55784;50.734;7.086;2023-02-01T01:59:15;11.13;;;2.55;;
68800;SDS011;55784;50.734;7.086;2023-02-01T02:01:41;13.30;;;2.58;;
68800;SDS011;55784;50.734;7.086;2023-02-01T02:04:07;10.67;;;2.60;;
68800;SDS011;55784;50.734;7.086;2023-02-01T02:09:04;15.82;;;2.70;;
68800;SDS011;55784;50.734;7.086;2023-02-01T02:11:29;14.97;;;2.70;;
68800;SDS011;55784;50.734;7.086;2023-02-01T02:13:54;11.67;;;2.83;;
68800;SDS011;55784;50.734;7.086;2023-02-01T02:19:02;13.02;;;2.50;;
68800;SDS011;55784;50.734;7.086;2023-02-01T02:21:56;13.70;;;2.60;;
68800;SDS011;55784;50.734;7.086;2023-02-01T02:27:29;12.27;;;2.73;;
68800;SDS011;55784;50.734;7.086;2023-02-01T02:41:44;14.55;;;3.38;;
68800;SDS011;55784;50.734;7.086;2023-02-01T02:44:46;11.40;;;3.03;;
68800;SDS011;55784;50.734;7.086;2023-02-01T02:47:39;11.40;;;2.88;;
68800;SDS011;55784;50.734;7.086;2023-02-01T02:53:18;13.00;;;3.03;;
68800;SDS011;55784;50.734;7.086;2023-02-01T02:56:08;13.07;;;2.73;;
68800;SDS011;55784;50.734;7.086;2023-02-01T02:58:53;13.27;;;2.75;;
68800;SDS011;55784;50.734;7.086;2023-02-01T03:01:38;13.55;;;3.13;;
68800;SDS011;55784;50.734;7.086;2023-02-01T03:04:23;9.82;;;2.80;;
68800;SDS011;55784;50.734;7.086;2023-02-01T03:06:51;10.73;;;2.72;;
68800;SDS011;55784;50.734;7.086;2023-02-01T03:09:22;11.53;;;2.80;;
68800;SDS011;55784;50.734;7.086;2023-02-01T03:11:55;10.50;;;2.50;;
68800;SDS011;55784;50.734;7.086;2023-02-01T03:14:43;12.45;;;2.88;;
68800;SDS011;55784;50.734;7.086;2023-02-01T03:17:13;13.00;;;2.58;;
68800;SDS011;55784;50.734;7.086;2023-02-01T03:19:45;11.70;;;2.30;;
68800;SDS011;55784;50.734;7.086;2023-02-01T03:22:23;12.67;;;2.70;;
68800;SDS011;55784;50.734;7.086;2023-02-01T03:24:52;13.27;;;2.55;;
68800;SDS011;55784;50.734;7.086;2023-02-01T03:32:43;13.15;;;2.50;;
68800;SDS011;55784;50.734;7.086;2023-02-01T03:35:33;11.87;;;2.30;;
68800;SDS011;55784;50.734;7.086;2023-02-01T03:38:54;11.77;;;2.70;;
68800;SDS011;55784;50.734;7.086;2023-02-01T03:46:59;10.40;;;2.53;;
68800;SDS011;55784;50.734;7.086;2023-02-01T03:52:27;12.80;;;2.78;;
68800;SDS011;55784;50.734;7.086;2023-02-01T03:54:55;12.35;;;2.40;;
68800;SDS011;55784;50.734;7.086;2023-02-01T03:57:23;14.85;;;3.10;;
68800;SDS011;55784;50.734;7.086;2023-02-01T03:59:54;13.95;;;2.70;;
68800;SDS011;55784;50.734;7.086;2023-02-01T04:02:29;12.70;;;2.63;;
68800;SDS011;55784;50.734;7.086;2023-02-01T04:04:55;19.40;;;2.88;;
68800;SDS011;55784;50.734;7.086;2023-02-01T04:07:20;13.63;;;2.60;;
68800;SDS011;55784;50.734;7.086;2023-02-01T04:09:46;13.63;;;2.80;;
68800;SDS011;55784;50.734;7.086;2023-02-01T04:12:11;15.17;;;3.10;;
68800;SDS011;55784;50.734;7.086;2023-02-01T04:14:36;12.53;;;2.77;;
68800;SDS011;55784;50.734;7.086;2023-02-01T04:17:01;13.33;;;2.87;;
68800;SDS011;55784;50.734;7.086;2023-02-01T04:19:27;14.23;;;3.40;;
68800;SDS011;55784;50.734;7.086;2023-02-01T04:21:52;14.40;;;3.47;;
68800;SDS011;55784;50.734;7.086;2023-02-01T04:24:17;14.13;;;3.03;;
68800;SDS011;55784;50.734;7.086;2023-02-01T04:26:43;14.17;;;3.13;;
68800;SDS011;55784;50.734;7.086;2023-02-01T04:29:08;13.23;;;3.10;;
68800;SDS011;55784;50.734;7.086;2023-02-01T04:31:35;13.23;;;3.15;;
68800;SDS011;55784;50.734;7.086;2023-02-01T04:34:01;14.57;;;3.20;;
68800;SDS011;55784;50.734;7.086;2023-02-01T04:36:26;17.20;;;2.78;;
68800;SDS011;55784;50.734;7.086;2023-02-01T04:38:52;13.07;;;2.90;;
68800;SDS011;55784;50.734;7.086;2023-02-01T04:41:18;14.17;;;3.97;;
68800;SDS011;55784;50.734;7.086;2023-02-01T04:43:47;12.05;;;3.13;;
68800;SDS011;55784;50.734;7.086;2023-02-01T04:46:12;14.40;;;3.00;;
68800;SDS011;55784;50.734;7.086;2023-02-01T04:48:38;15.70;;;2.90;;
68800;SDS011;55784;50.734;7.086;2023-02-01T04:51:03;12.90;;;2.73;;
68800;SDS011;55784;50.734;7.086;2023-02-01T04:53:28;16.50;;;3.08;;
68800;SDS011;55784;50.734;7.086;2023-02-01T04:55:54;16.57;;;2.73;;
68800;SDS011;55784;50.734;7.086;2023-02-01T04:58:20;11.93;;;2.92;;
68800;SDS011;55784;50.734;7.086;2023-02-01T05:00:46;13.23;;;2.97;;
68800;SDS011;55784;50.734;7.086;2023-02-01T05:03:11;14.70;;;3.10;;
68800;SDS011;55784;50.734;7.086;2023-02-01T05:05:37;14.07;;;3.00;;
68800;SDS011;55784;50.734;7.086;2023-02-01T05:08:02;13.30;;;2.73;;
68800;SDS011;55784;50.734;7.086;2023-02-01T05:10:28;13.50;;;2.87;;
68800;SDS011;55784;50.734;7.086;2023-02-01T05:12:53;13.50;;;2.63;;
68800;SDS011;55784;50.734;7.086;2023-02-01T05:15:37;11.65;;;2.60;;
68800;SDS011;55784;50.734;7.086;2023-02-01T05:18:02;14.63;;;2.50;;
68800;SDS011;55784;50.734;7.086;2023-02-01T05:20:28;12.10;;;2.35;;
68800;SDS011;55784;50.734;7.086;2023-02-01T05:22:53;14.57;;;2.50;;
68800;SDS011;55784;50.734;7.086;2023-02-01T05:25:18;13.63;;;2.40;;
68800;SDS011;55784;50.734;7.086;2023-02-01T05:27:44;16.63;;;2.83;;
68800;SDS011;55784;50.734;7.086;2023-02-01T05:30:09;10.33;;;2.40;;
68800;SDS011;55784;50.734;7.086;2023-02-01T05:32:35;13.45;;;2.63;;
68800;SDS011;55784;50.734;7.086;2023-02-01T05:35:01;12.93;;;2.10;;
68800;SDS011;55784;50.734;7.086;2023-02-01T05:37:26;10.93;;;2.33;;
68800;SDS011;55784;50.734;7.086;2023-02-01T05:39:52;14.67;;;2.30;;
68800;SDS011;55784;50.734;7.086;2023-02-01T05:42:17;12.47;;;2.63;;
68800;SDS011;55784;50.734;7.086;2023-02-01T05:44:43;12.48;;;2.15;;
68800;SDS011;55784;50.734;7.086;2023-02-01T05:47:08;12.57;;;2.20;;
68800;SDS011;55784;50.734;7.086;2023-02-01T05:49:34;12.23;;;1.80;;
68800;SDS011;55784;50.734;7.086;2023-02-01T05:51:59;13.17;;;2.33;;
68800;SDS011;55784;50.734;7.086;2023-02-01T05:54:24;16.13;;;2.23;;
68800;SDS011;55784;50.734;7.086;2023-02-01T05:56:50;10.23;;;1.80;;
68800;SDS011;55784;50.734;7.086;2023-02-01T05:59:15;14.77;;;1.90;;
68800;SDS011;55784;50.734;7.086;2023-02-01T06:01:40;13.00;;;1.70;;
68800;SDS011;55784;50.734;7.086;2023-02-01T06:04:06;10.83;;;1.77;;
68800;SDS011;55784;50.734;7.086;2023-02-01T06:06:31;8.50;;;1.73;;
68800;SDS011;55784;50.734;7.086;2023-02-01T06:08:56;11.27;;;1.83;;
68800;SDS011;55784;50.734;7.086;2023-02-01T06:11:22;13.90;;;2.00;;
68800;SDS011;55784;50.734;7.086;2023-02-01T06:13:47;9.87;;;1.57;;
68800;SDS011;55784;50.734;7.086;2023-02-01T06:16:12;9.60;;;1.60;;
68800;SDS011;55784;50.734;7.086;2023-02-01T06:18:39;12.40;;;1.73;;
68800;SDS011;55784;50.734;7.086;2023-02-01T06:21:06;12.30;;;1.70;;
68800;SDS011;55784;50.734;7.086;2023-02-01T06:23:31;14.80;;;2.13;;
68800;SDS011;55784;50.734;7.086;2023-02-01T06:26:01;11.15;;;1.52;;
68800;SDS011;55784;50.734;7.086;2023-02-01T06:28:29;10.40;;;1.67;;
68800;SDS011;55784;50.734;7.086;2023-02-01T06:30:56;10.48;;;1.90;;
68800;SDS011;55784;50.734;7.086;2023-02-01T06:33:23;11.10;;;1.83;;
68800;SDS011;55784;50.734;7.086;2023-02-01T06:35:58;12.15;;;1.58;;
68800;SDS011;55784;50.734;7.086;2023-02-01T06:38:25;15.37;;;2.20;;
68800;SDS011;55784;50.734;7.086;2023-02-01T06:40:54;10.20;;;2.22;;
68800;SDS011;55784;50.734;7.086;2023-02-01T06:46:38;12.95;;;1.58;;
68800;SDS011;55784;50.734;7.086;2023-02-01T06:49:07;13.73;;;2.40;;
68800;SDS011;55784;50.734;7.086;2023-02-01T06:51:33;13.15;;;1.90;;
68800;SDS011;55784;50.734;7.086;2023-02-01T06:53:59;14.90;;;2.40;;
68800;SDS011;55784;50.734;7.086;2023-02-01T06:56:25;12.07;;;1.80;;
68800;SDS011;55784;50.734;7.086;2023-02-01T06:58:51;12.38;;;1.73;;
68800;SDS011;55784;50.734;7.086;2023-02-01T07:01:16;10.73;;;1.90;;
68800;SDS011;55784;50.734;7.086;2023-02-01T07:03:42;16.33;;;2.23;;
68800;SDS011;55784;50.734;7.086;2023-02-01T07:06:08;14.90;;;2.83;;
68800;SDS011;55784;50.734;7.086;2023-02-01T07:08:35;13.95;;;2.38;;
68800;SDS011;55784;50.734;7.086;2023-02-01T07:11:03;14.77;;;2.67;;
68800;SDS011;55784;50.734;7.086;2023-02-01T07:13:32;12.45;;;2.13;;
68800;SDS011;55784;50.734;7.086;2023-02-01T07:16:01;11.83;;;1.50;;
68800;SDS011;55784;50.734;7.086;2023-02-01T07:18:29;12.25;;;2.08;;
68800;SDS011;55784;50.734;7.086;2023-02-01T07:20:55;11.38;;;1.90;;
68800;SDS011;55784;50.734;7.086;2023-02-01T07:23:21;14.77;;;2.45;;
68800;SDS011;55784;50.734;7.086;2023-02-01T07:25:47;11.13;;;2.10;;
68800;SDS011;55784;50.734;7.086;2023-02-01T07:28:12;13.13;;;2.27;;
68800;SDS011;55784;50.734;7.086;2023-02-01T07:30:38;12.30;;;2.33;;
68800;SDS011;55784;50.734;7.086;2023-02-01T07:33:04;11.07;;;1.70;;
68800;SDS011;55784;50.734;7.086;2023-02-01T07:35:29;12.98;;;2.20;;
68800;SDS011;55784;50.734;7.086;2023-02-01T07:37:56;10.50;;;2.13;;
68800;SDS011;55784;50.734;7.086;2023-02-01T07:40:23;16.02;;;2.92;;
68800;SDS011;55784;50.734;7.086;2023-02-01T07:42:53;12.80;;;2.20;;
68800;SDS011;55784;50.734;7.086;2023-02-01T07:45:19;10.48;;;2.20;;
68800;SDS011;55784;50.734;7.086;2023-02-01T07:47:45;14.75;;;2.80;;
68800;SDS011;55784;50.734;7.086;2023-02-01T07:50:10;14.47;;;2.37;;
68800;SDS011;55784;50.734;7.086;2023-02-01T07:52:35;10.27;;;1.93;;
68800;SDS011;55784;50.734;7.086;2023-02-01T07:55:01;10.47;;;2.63;;
68800;SDS011;55784;50.734;7.086;2023-02-01T07:57:26;13.93;;;2.40;;
68800;SDS011;55784;50.734;7.086;2023-02-01T07:59:52;13.47;;;2.53;;
68800;SDS011;55784;50.734;7.086;2023-02-01T08:02:35;13.15;;;2.47;;
68800;SDS011;55784;50.734;7.086;2023-02-01T08:05:00;12.27;;;2.60;;
68800;SDS011;55784;50.734;7.086;2023-02-01T08:07:26;16.60;;;2.97;;
68800;SDS011;55784;50.734;7.086;2023-02-01T08:09:51;13.02;;;2.80;;
68800;SDS011;55784;50.734;7.086;2023-02-01T08:12:16;13.18;;;2.75;;
68800;SDS011;55784;50.734;7.086;2023-02-01T08:14:42;12.82;;;2.45;;
68800;SDS011;55784;50.734;7.086;2023-02-01T08:17:07;10.73;;;2.50;;
68800;SDS011;55784;50.734;7.086;2023-02-01T08:19:32;12.10;;;2.40;;
68800;SDS011;55784;50.734;7.086;2023-02-01T08:21:58;10.80;;;2.40;;
68800;SDS011;55784;50.734;7.086;2023-02-01T08:24:24;11.43;;;2.50;;
68800;SDS011;55784;50.734;7.086;2023-02-01T08:26:49;12.47;;;2.50;;
68800;SDS011;55784;50.734;7.086;2023-02-01T08:29:15;14.57;;;2.78;;
68800;SDS011;55784;50.734;7.086;2023-02-01T08:31:40;11.63;;;2.30;;
68800;SDS011;55784;50.734;7.086;2023-02-01T08:34:07;11.23;;;2.60;;
68800;SDS011;55784;50.734;7.086;2023-02-01T08:36:33;11.45;;;2.40;;
68800;SDS011;55784;50.734;7.086;2023-02-01T08:38:59;11.55;;;2.85;;
68800;SDS011;55784;50.734;7.086;2023-02-01T08:41:25;15.93;;;2.40;;
68800;SDS011;55784;50.734;7.086;2023-02-01T08:43:52;10.00;;;2.15;;
68800;SDS011;55784;50.734;7.086;2023-02-01T08:46:19;12.03;;;2.53;;
68800;SDS011;55784;50.734;7.086;2023-02-01T08:48:45;14.48;;;2.42;;
68800;SDS011;55784;50.734;7.086;2023-02-01T08:51:12;11.32;;;2.30;;
68800;SDS011;55784;50.734;7.086;2023-02-01T08:53:39;12.83;;;2.40;;
68800;SDS011;55784;50.734;7.086;2023-02-01T08:56:06;13.57;;;2.80;;
68800;SDS011;55784;50.734;7.086;2023-02-01T08:58:32;11.70;;;2.30;;
68800;SDS011;55784;50.734;7.086;2023-02-01T09:01:01;10.47;;;2.20;;
68800;SDS011;55784;50.734;7.086;2023-02-01T09:03:28;12.93;;;2.60;;
68800;SDS011;55784;50.734;7.086;2023-02-01T09:05:59;12.43;;;2.43;;
68800;SDS011;55784;50.734;7.086;2023-02-01T09:08:27;11.13;;;2.50;;
68800;SDS011;55784;50.734;7.086;2023-02-01T09:10:53;12.87;;;2.53;;
68800;SDS011;55784;50.734;7.086;2023-02-01T09:13:18;12.82;;;2.33;;
68800;SDS011;55784;50.734;7.086;2023-02-01T09:15:43;13.17;;;2.33;;
68800;SDS011;55784;50.734;7.086;2023-02-01T09:18:09;12.53;;;2.23;;
68800;SDS011;55784;50.734;7.086;2023-02-01T09:20:34;15.47;;;3.03;;
68800;SDS011;55784;50.734;7.086;2023-02-01T09:23:01;13.65;;;2.17;;
68800;SDS011;55784;50.734;7.086;2023-02-01T09:25:27;16.73;;;2.30;;
68800;SDS011;55784;50.734;7.086;2023-02-01T09:27:53;12.23;;;2.00;;
68800;SDS011;55784;50.734;7.086;2023-02-01T09:30:18;11.43;;;1.77;;
68800;SDS011;55784;50.734;7.086;2023-02-01T09:32:44;11.30;;;2.10;;
68800;SDS011;55784;50.734;7.086;2023-02-01T09:35:09;13.30;;;1.80;;
68800;SDS011;55784;50.734;7.086;2023-02-01T09:37:34;12.60;;;2.07;;
68800;SDS011;55784;50.734;7.086;2023-02-01T09:40:00;18.38;;;2.50;;
68800;SDS011;55784;50.734;7.086;2023-02-01T09:45:19;12.80;;;2.13;;
68800;SDS011;55784;50.734;7.086;2023-02-01T09:47:55;13.18;;;1.85;;
68800;SDS011;55784;50.734;7.086;2023-02-01T09:50:34;13.17;;;2.07;;
68800;SDS011;55784;50.734;7.086;2023-02-01T09:53:04;11.77;;;2.80;;
68800;SDS011;55784;50.734;7.086;2023-02-01T09:55:41;9.40;;;1.73;;
68800;SDS011;55784;50.734;7.086;2023-02-01T09:58:12;10.48;;;1.80;;
68800;SDS011;55784;50.734;7.086;2023-02-01T10:00:42;10.38;;;1.70;;
68800;SDS011;55784;50.734;7.086;2023-02-01T10:03:15;11.70;;;2.20;;
68800;SDS011;55784;50.734;7.086;2023-02-01T10:05:44;13.70;;;2.45;;
68800;SDS011;55784;50.734;7.086;2023-02-01T10:08:31;12.30;;;2.30;;
68800;SDS011;55784;50.734;7.086;2023-02-01T10:13:59;13.55;;;2.08;;
68800;SDS011;55784;50.734;7.086;2023-02-01T10:16:41;12.77;;;2.03;;
68800;SDS011;55784;50.734;7.086;2023-02-01T10:21:54;13.73;;;2.50;;
68800;SDS011;55784;50.734;7.086;2023-02-01T10:27:22;11.90;;;2.10;;
68800;SDS011;55784;50.734;7.086;2023-02-01T10:30:01;9.52;;;1.80;;
68800;SDS011;55784;50.734;7.086;2023-02-01T10:32:35;11.73;;;2.60;;
68800;SDS011;55784;50.734;7.086;2023-02-01T10:35:13;11.17;;;2.00;;
68800;SDS011;55784;50.734;7.086;2023-02-01T10:37:42;10.27;;;1.85;;
68800;SDS011;55784;50.734;7.086;2023-02-01T10:42:35;13.27;;;2.00;;
68800;SDS011;55784;50.734;7.086;2023-02-01T10:45:00;9.52;;;1.60;;
68800;SDS011;55784;50.734;7.086;2023-02-01T10:47:28;9.10;;;1.77;;
68800;SDS011;55784;50.734;7.086;2023-02-01T10:52:36;10.13;;;2.00;;
68800;SDS011;55784;50.734;7.086;2023-02-01T10:58:35;12.27;;;1.80;;
68800;SDS011;55784;50.734;7.086;2023-02-01T11:00:44;8.90;;;1.98;;
68800;SDS011;55784;50.734;7.086;2023-02-01T11:03:21;10.45;;;1.88;;
68800;SDS011;55784;50.734;7.086;2023-02-01T11:08:49;11.95;;;2.33;;
68800;SDS011;55784;50.734;7.086;2023-02-01T11:11:16;8.75;;;1.80;;
68800;SDS011;55784;50.734;7.086;2023-02-01T11:13:42;11.88;;;1.98;;
68800;SDS011;55784;50.734;7.086;2023-02-01T11:16:12;11.43;;;2.17;;
68800;SDS011;55784;50.734;7.086;2023-02-01T11:18:42;13.20;;;2.17;;
68800;SDS011;55784;50.734;7.086;2023-02-01T11:21:08;12.43;;;2.13;;
68800;SDS011;55784;50.734;7.086;2023-02-01T11:23:39;12.03;;;2.07;;
68800;SDS011;55784;50.734;7.086;2023-02-01T11:26:28;14.73;;;3.25;;
68800;SDS011;55784;50.734;7.086;2023-02-01T11:28:56;13.40;;;1.95;;
68800;SDS011;55784;50.734;7.086;2023-02-01T11:31:27;11.00;;;2.50;;
68800;SDS011;55784;50.734;7.086;2023-02-01T11:34:00;11.02;;;1.88;;
68800;SDS011;55784;50.734;7.086;2023-02-01T11:36:32;13.70;;;2.30;;
68800;SDS011;55784;50.734;7.086;2023-02-01T11:39:07;8.95;;;1.70;;
68800;SDS011;55784;50.734;7.086;2023-02-01T11:44:47;9.23;;;1.73;;
68800;SDS011;55784;50.734;7.086;2023-02-01T11:47:29;10.70;;;2.10;;
68800;SDS011;55784;50.734;7.086;2023-02-01T11:49:57;11.68;;;1.80;;
68800;SDS011;55784;50.734;7.086;2023-02-01T12:06:05;11.38;;;2.20;;
68800;SDS011;55784;50.734;7.086;2023-02-01T12:11:58;10.77;;;1.48;;
68800;SDS011;55784;50.734;7.086;2023-02-01T12:20:34;16.25;;;3.20;;
68800;SDS011;55784;50.734;7.086;2023-02-01T12:23:25;9.52;;;2.00;;
68800;SDS011;55784;50.734;7.086;2023-02-01T12:26:23;9.43;;;1.95;;
68800;SDS011;55784;50.734;7.086;2023-02-01T12:31:53;9.93;;;1.63;;
68800;SDS011;55784;50.734;7.086;2023-02-01T12:34:54;11.75;;;2.03;;
68800;SDS011;55784;50.734;7.086;2023-02-01T12:37:37;8.32;;;1.60;;
68800;SDS011;55784;50.734;7.086;2023-02-01T12:40:49;9.75;;;1.90;;
68800;SDS011;55784;50.734;7.086;2023-02-01T12:43:38;10.57;;;1.83;;
68800;SDS011;55784;50.734;7.086;2023-02-01T12:46:12;10.98;;;1.63;;
68800;SDS011;55784;50.734;7.086;2023-02-01T12:49:16;9.32;;;1.73;;
68800;SDS011;55784;50.734;7.086;2023-02-01T12:51:36;11.00;;;1.63;;
68800;SDS011;55784;50.734;7.086;2023-02-01T12:54:12;9.55;;;1.80;;
68800;SDS011;55784;50.734;7.086;2023-02-01T12:56:54;15.13;;;2.30;;
68800;SDS011;55784;50.734;7.086;2023-02-01T12:59:27;12.77;;;2.80;;
68800;SDS011;55784;50.734;7.086;2023-02-01T13:02:15;11.18;;;1.70;;
68800;SDS011;55784;50.734;7.086;2023-02-01T13:04:59;8.82;;;1.55;;
68800;SDS011;55784;50.734;7.086;2023-02-01T13:07:34;8.40;;;1.42;;
68800;SDS011;55784;50.734;7.086;2023-02-01T13:13:03;8.57;;;1.58;;
68800;SDS011;55784;50.734;7.086;2023-02-01T13:15:43;8.73;;;1.80;;
68800;SDS011;55784;50.734;7.086;2023-02-01T13:18:17;12.93;;;1.90;;
68800;SDS011;55784;50.734;7.086;2023-02-01T13:20:49;8.35;;;1.98;;
68800;SDS011;55784;50.734;7.086;2023-02-01T13:23:34;8.90;;;1.67;;
68800;SDS011;55784;50.734;7.086;2023-02-01T13:26:02;10.35;;;1.85;;
68800;SDS011;55784;50.734;7.086;2023-02-01T13:28:41;10.05;;;1.90;;
68800;SDS011;55784;50.734;7.086;2023-02-01T13:34:24;11.63;;;2.25;;
68800;SDS011;55784;50.734;7.086;2023-02-01T13:44:52;8.40;;;1.60;;
68800;SDS011;55784;50.734;7.086;2023-02-01T13:50:02;10.85;;;1.70;;
68800;SDS011;55784;50.734;7.086;2023-02-01T13:52:56;8.68;;;1.35;;
68800;SDS011;55784;50.734;7.086;2023-02-01T13:55:29;9.45;;;1.55;;
68800;SDS011;55784;50.734;7.086;2023-02-01T13:58:09;9.77;;;1.70;;
68800;SDS011;55784;50.734;7.086;2023-02-01T14:00:40;9.25;;;1.40;;
68800;SDS011;55784;50.734;7.086;2023-02-01T14:03:18;10.70;;;1.55;;
68800;SDS011;55784;50.734;7.086;2023-02-01T14:08:22;11.43;;;1.50;;
68800;SDS011;55784;50.734;7.086;2023-02-01T14:11:04;10.13;;;2.03;;
68800;SDS011;55784;50.734;7.086;2023-02-01T14:16:14;10.52;;;1.90;;
68800;SDS011;55784;50.734;7.086;2023-02-01T14:26:23;12.40;;;1.70;;
68800;SDS011;55784;50.734;7.086;2023-02-01T14:28:56;11.50;;;1.83;;
68800;SDS011;55784;50.734;7.086;2023-02-01T14:33:58;11.13;;;1.65;;
68800;SDS011;55784;50.734;7.086;2023-02-01T14:36:25;9.25;;;1.75;;
68800;SDS011;55784;50.734;7.086;2023-02-01T14:39:03;9.70;;;1.90;;
68800;SDS011;55784;50.734;7.086;2023-02-01T14:41:32;10.80;;;1.63;;
68800;SDS011;55784;50.734;7.086;2023-02-01T14:49:41;9.48;;;1.83;;
68800;SDS011;55784;50.734;7.086;2023-02-01T14:52:16;8.38;;;1.50;;
68800;SDS011;55784;50.734;7.086;2023-02-01T14:54:45;11.73;;;1.90;;
68800;SDS011;55784;50.734;7.086;2023-02-01T14:57:16;11.45;;;1.73;;
68800;SDS011;55784;50.734;7.086;2023-02-01T14:59:45;8.85;;;1.50;;
68800;SDS011;55784;50.734;7.086;2023-02-01T15:02:18;8.50;;;1.50;;
68800;SDS011;55784;50.734;7.086;2023-02-01T15:04:50;10.98;;;1.98;;
68800;SDS011;55784;50.734;7.086;2023-02-01T15:07:19;10.35;;;1.67;;
68800;SDS011;55784;50.734;7.086;2023-02-01T15:09:46;9.45;;;1.40;;
68800;SDS011;55784;50.734;7.086;2023-02-01T15:12:32;9.95;;;1.75;;
68800;SDS011;55784;50.734;7.086;2023-02-01T15:15:21;12.95;;;2.05;;
68800;SDS011;55784;50.734;7.086;2023-02-01T15:20:22;8.90;;;1.60;;
68800;SDS011;55784;50.734;7.086;2023-02-01T15:22:57;9.38;;;2.00;;
68800;SDS011;55784;50.734;7.086;2023-02-01T15:25:26;9.98;;;1.70;;
68800;SDS011;55784;50.734;7.086;2023-02-01T15:27:53;11.82;;;1.80;;
68800;SDS011;55784;50.734;7.086;2023-02-01T15:30:20;10.10;;;1.70;;
68800;SDS011;55784;50.734;7.086;2023-02-01T15:32:48;8.23;;;1.40;;
68800;SDS011;55784;50.734;7.086;2023-02-01T15:43:27;12.05;;;1.70;;
68800;SDS011;55784;50.734;7.086;2023-02-01T15:45:58;8.70;;;1.35;;
68800;SDS011;55784;50.734;7.086;2023-02-01T15:48:25;7.03;;;1.10;;
68800;SDS011;55784;50.734;7.086;2023-02-01T15:50:52;9.50;;;1.30;;
68800;SDS011;55784;50.734;7.086;2023-02-01T15:53:21;12.00;;;1.67;;
68800;SDS011;55784;50.734;7.086;2023-02-01T15:55:51;10.45;;;1.63;;
68800;SDS011;55784;50.734;7.086;2023-02-01T15:58:19;7.43;;;1.17;;
68800;SDS011;55784;50.734;7.086;2023-02-01T16:00:47;10.25;;;1.08;;
68800;SDS011;55784;50.734;7.086;2023-02-01T16:03:32;7.75;;;1.63;;
68800;SDS011;55784;50.734;7.086;2023-02-01T16:06:01;14.38;;;2.38;;
68800;SDS011;55784;50.734;7.086;2023-02-01T16:08:29;7.70;;;1.38;;
68800;SDS011;55784;50.734;7.086;2023-02-01T16:11:01;8.98;;;1.70;;
68800;SDS011;55784;50.734;7.086;2023-02-01T16:13:32;10.27;;;2.05;;
68800;SDS011;55784;50.734;7.086;2023-02-01T16:15:58;8.95;;;1.60;;
68800;SDS011;55784;50.734;7.086;2023-02-01T16:18:23;13.50;;;2.20;;
68800;SDS011;55784;50.734;7.086;2023-02-01T16:20:48;12.03;;;2.30;;
68800;SDS011;55784;50.734;7.086;2023-02-01T16:23:14;7.80;;;1.27;;
68800;SDS011;55784;50.734;7.086;2023-02-01T16:25:39;8.87;;;1.93;;
68800;SDS011;55784;50.734;7.086;2023-02-01T16:28:08;8.18;;;1.75;;
68800;SDS011;55784;50.734;7.086;2023-02-01T16:30:34;10.43;;;1.50;;
68800;SDS011;55784;50.734;7.086;2023-02-01T16:33:00;10.25;;;1.80;;
68800;SDS011;55784;50.734;7.086;2023-02-01T16:35:36;13.68;;;1.98;;
68800;SDS011;55784;50.734;7.086;2023-02-01T16:38:03;11.65;;;2.17;;
68800;SDS011;55784;50.734;7.086;2023-02-01T16:40:36;10.70;;;1.63;;
68800;SDS011;55784;50.734;7.086;2023-02-01T16:43:07;7.20;;;1.40;;
68800;SDS011;55784;50.734;7.086;2023-02-01T16:45:37;8.63;;;1.50;;
68800;SDS011;55784;50.734;7.086;2023-02-01T16:48:03;12.07;;;2.05;;
68800;SDS011;55784;50.734;7.086;2023-02-01T16:50:29;9.77;;;1.63;;
68800;SDS011;55784;50.734;7.086;2023-02-01T16:53:01;6.82;;;1.27;;
68800;SDS011;55784;50.734;7.086;2023-02-01T17:06:02;7.97;;;1.88;;
68800;SDS011;55784;50.734;7.086;2023-02-01T18:38:00;14.30;;;2.67;;
68800;SDS011;55784;50.734;7.086;2023-02-01T18:48:12;13.57;;;3.00;;
68800;SDS011;55784;50.734;7.086;2023-02-01T18:50:39;13.77;;;2.63;;
68800;SDS011;55784;50.734;7.086;2023-02-01T18:53:22;12.77;;;3.13;;
68800;SDS011;55784;50.734;7.086;2023-02-01T18:55:51;11.77;;;2.72;;
68800;SDS011;55784;50.734;7.086;2023-02-01T18:58:31;11.55;;;2.60;;
68800;SDS011;55784;50.734;7.086;2023-02-01T19:01:18;14.60;;;3.75;;
68800;SDS011;55784;50.734;7.086;2023-02-01T19:03:48;15.32;;;2.90;;